createdAt,value
2023-03-18T00:02:53.780Z,2.89
2023-03-18T00:06:04.012Z,2.70
2023-03-18T00:09:06.483Z,2.87
2023-03-18T00:12:08.844Z,2.82
2023-03-18T00:15:14.320Z,2.87
2023-03-18T00:18:16.806Z,2.91
2023-03-18T00:21:19.487Z,2.73
2023-03-18T00:24:22.078Z,2.74
2023-03-18T00:27:24.395Z,2.50
2023-03-18T00:30:26.670Z,2.74
2023-03-18T00:33:28.962Z,2.63
2023-03-18T00:36:32.474Z,2.73
2023-03-18T00:39:37.554Z,2.61
2023-03-18T00:42:47.485Z,2.70
2023-03-18T00:45:51.258Z,2.60
2023-03-18T00:48:56.587Z,2.45
2023-03-18T00:51:59.308Z,2.63
2023-03-18T00:55:02.112Z,2.58
2023-03-18T00:58:04.532Z,2.58
2023-03-18T01:01:08.472Z,2.44
2023-03-18T01:04:11.560Z,2.50
2023-03-18T01:07:14.033Z,2.36
2023-03-18T01:10:17.409Z,2.42
2023-03-18T01:13:19.926Z,2.31
2023-03-18T01:16:22.887Z,2.15
2023-03-18T01:19:26.773Z,2.25
2023-03-18T01:22:29.501Z,2.08
2023-03-18T01:25:32.731Z,2.22
2023-03-18T01:28:35.122Z,2.16
2023-03-18T01:31:38.525Z,2.12
2023-03-18T01:34:47.096Z,2.05
2023-03-18T01:37:49.785Z,1.94
2023-03-18T01:40:54.679Z,1.75
2023-03-18T01:43:57.863Z,1.82
2023-03-18T01:47:00.545Z,1.98
2023-03-18T01:50:04.921Z,1.83
2023-03-18T01:53:11.691Z,1.85
2023-03-18T01:56:14.235Z,1.54
2023-03-18T01:59:17.291Z,1.71
2023-03-18T02:02:20.917Z,1.56
2023-03-18T02:05:27.738Z,1.68
2023-03-18T02:08:30.310Z,1.76
2023-03-18T02:11:38.492Z,1.66
2023-03-18T02:14:41.365Z,1.50
2023-03-18T02:17:47.681Z,1.62
2023-03-18T02:21:07.492Z,1.54
2023-03-18T02:24:40.258Z,1.48
2023-03-18T02:27:55.164Z,1.44
2023-03-18T02:31:03.554Z,1.45
2023-03-18T02:34:10.470Z,1.29
2023-03-18T02:37:14.082Z,1.30
2023-03-18T02:40:34.453Z,1.41
2023-03-18T02:43:40.722Z,1.34
2023-03-18T02:47:04.255Z,1.42
2023-03-18T02:50:06.825Z,1.39
2023-03-18T02:53:12.738Z,1.33
2023-03-18T02:56:16.162Z,1.35
2023-03-18T02:59:20.065Z,1.06
2023-03-18T03:02:22.527Z,0.99
2023-03-18T03:05:25.392Z,1.06
2023-03-18T03:08:29.434Z,0.91
2023-03-18T03:11:32.553Z,1.17
2023-03-18T03:14:43.430Z,1.19
2023-03-18T03:17:46.077Z,1.20
2023-03-18T03:20:49.043Z,1.12
2023-03-18T03:23:52.432Z,1.06
2023-03-18T03:26:54.746Z,1.13
2023-03-18T03:29:57.409Z,1.07
2023-03-18T03:33:01.560Z,1.03
2023-03-18T03:36:04.136Z,0.97
2023-03-18T03:39:07.408Z,0.97
2023-03-18T03:42:11.397Z,1.05
2023-03-18T03:45:15.983Z,1.07
2023-03-18T03:48:18.827Z,1.01
2023-03-18T03:51:22.349Z,0.90
2023-03-18T03:54:25.817Z,0.92
2023-03-18T03:57:28.591Z,0.95
2023-03-18T04:00:31.513Z,1.03
2023-03-18T04:03:34.260Z,1.05
2023-03-18T04:06:39.005Z,1.11
2023-03-18T04:09:41.726Z,0.92
2023-03-18T04:12:46.084Z,1.00
2023-03-18T04:15:48.693Z,1.11
2023-03-18T04:18:54.496Z,0.90
2023-03-18T04:21:58.857Z,0.85
2023-03-18T04:25:01.891Z,1.02
2023-03-18T04:28:04.877Z,1.02
2023-03-18T04:31:07.637Z,0.98
2023-03-18T04:34:09.968Z,1.05
2023-03-18T04:37:14.605Z,1.06
2023-03-18T04:40:20.254Z,1.13
2023-03-18T04:43:22.987Z,0.95
2023-03-18T04:46:30.189Z,0.88
2023-03-18T04:49:32.968Z,1.22
2023-03-18T04:52:40.353Z,1.12
2023-03-18T04:55:45.148Z,1.32
2023-03-18T04:58:51.305Z,1.15
2023-03-18T05:01:58.135Z,1.25
2023-03-18T05:05:01.425Z,1.43
2023-03-18T05:08:07.862Z,1.22
2023-03-18T05:11:10.908Z,1.51
2023-03-18T05:14:13.950Z,1.38
2023-03-18T05:17:20.635Z,1.50
2023-03-18T05:20:31.208Z,1.53
2023-03-18T05:23:35.000Z,1.57
2023-03-18T05:26:38.948Z,1.65
2023-03-18T05:29:43.162Z,1.59
2023-03-18T05:32:50.343Z,1.75
2023-03-18T05:35:55.560Z,1.67
2023-03-18T05:39:03.929Z,1.83
2023-03-18T05:42:07.044Z,1.90
2023-03-18T05:45:09.760Z,1.81
2023-03-18T05:48:21.838Z,2.05
2023-03-18T05:51:28.550Z,2.05
2023-03-18T05:54:32.128Z,1.83
2023-03-18T05:57:34.459Z,2.01
2023-03-18T06:00:41.710Z,2.17
2023-03-18T06:03:45.491Z,2.17
2023-03-18T06:06:48.608Z,2.31
2023-03-18T06:09:52.407Z,2.23
2023-03-18T06:12:55.863Z,2.40
2023-03-18T06:16:00.409Z,2.37
2023-03-18T06:19:06.004Z,2.26
2023-03-18T06:22:10.057Z,2.45
2023-03-18T06:25:13.447Z,2.61
2023-03-18T06:28:16.451Z,2.45
2023-03-18T06:31:19.282Z,2.71
2023-03-18T06:34:22.007Z,2.82
2023-03-18T06:37:24.521Z,3.07
2023-03-18T06:40:27.502Z,2.85
2023-03-18T06:43:31.282Z,2.92
2023-03-18T06:46:33.907Z,3.03
2023-03-18T06:49:38.267Z,3.14
2023-03-18T06:52:49.910Z,2.92
2023-03-18T06:55:59.289Z,3.26
2023-03-18T06:59:11.059Z,3.45
2023-03-18T07:02:15.927Z,3.59
2023-03-18T07:05:20.886Z,3.78
2023-03-18T07:08:23.838Z,3.90
2023-03-18T07:11:26.930Z,3.84
2023-03-18T07:14:30.812Z,3.82
2023-03-18T07:17:33.995Z,4.04
2023-03-18T07:20:36.921Z,4.19
2023-03-18T07:23:39.390Z,4.00
2023-03-18T07:26:41.765Z,4.18
2023-03-18T07:29:45.695Z,4.45
2023-03-18T07:32:48.209Z,4.46
2023-03-18T07:35:51.250Z,4.60
2023-03-18T07:38:53.846Z,4.75
2023-03-18T07:41:56.449Z,4.89
2023-03-18T07:45:05.974Z,5.04
2023-03-18T07:48:08.284Z,5.10
2023-03-18T07:51:10.662Z,5.06
2023-03-18T07:54:13.001Z,5.17
2023-03-18T07:57:15.305Z,5.42
2023-03-18T08:00:18.586Z,5.37
2023-03-18T08:03:20.953Z,5.45
2023-03-18T08:06:24.073Z,5.73
2023-03-18T08:09:27.840Z,5.98
2023-03-18T08:12:41.597Z,5.96
2023-03-18T08:15:53.146Z,5.85
2023-03-18T08:18:55.541Z,5.84
2023-03-18T08:21:57.890Z,6.17
2023-03-18T08:25:01.637Z,6.21
2023-03-18T08:28:07.454Z,6.27
2023-03-18T08:31:10.433Z,6.47
2023-03-18T08:34:14.200Z,6.50
2023-03-18T08:37:16.646Z,6.46
2023-03-18T08:40:20.504Z,6.15
2023-03-18T08:43:22.902Z,6.37
2023-03-18T08:46:25.556Z,6.32
2023-03-18T08:49:28.350Z,6.27
2023-03-18T08:52:30.977Z,6.15
2023-03-18T08:55:37.363Z,6.27
2023-03-18T08:58:40.066Z,6.71
2023-03-18T09:01:42.549Z,7.08
2023-03-18T09:04:45.477Z,7.00
2023-03-18T09:07:48.767Z,7.18
2023-03-18T09:10:54.377Z,7.33
2023-03-18T09:13:56.754Z,7.44
2023-03-18T09:17:00.005Z,7.43
2023-03-18T09:20:03.159Z,7.53
2023-03-18T09:23:05.678Z,7.56
2023-03-18T09:26:08.077Z,7.60
2023-03-18T09:29:11.482Z,7.59
2023-03-18T09:32:13.974Z,7.74
2023-03-18T09:35:16.647Z,7.87
2023-03-18T09:38:20.903Z,7.86
2023-03-18T09:41:25.867Z,8.02
2023-03-18T09:44:30.970Z,8.10
2023-03-18T09:47:33.536Z,7.97
2023-03-18T09:50:51.343Z,7.99
2023-03-18T09:53:57.479Z,7.99
2023-03-18T09:56:59.949Z,8.03
2023-03-18T10:00:09.333Z,8.11
2023-03-18T10:03:15.912Z,8.31
2023-03-18T10:06:21.137Z,8.66
2023-03-18T10:09:39.042Z,8.73
2023-03-18T10:12:45.464Z,8.75
2023-03-18T10:15:54.409Z,8.47
2023-03-18T10:18:57.316Z,8.45
2023-03-18T10:22:09.653Z,8.51
2023-03-18T10:25:42.341Z,8.34
2023-03-18T10:28:54.562Z,8.65
2023-03-18T10:31:59.666Z,8.58
2023-03-18T10:35:28.363Z,8.61
2023-03-18T10:38:51.958Z,8.69
2023-03-18T10:41:55.503Z,8.97
2023-03-18T10:45:09.067Z,9.31
2023-03-18T10:48:21.146Z,9.24
2023-03-18T10:51:45.428Z,9.48
2023-03-18T10:54:52.532Z,9.64
2023-03-18T10:57:55.466Z,9.60
2023-03-18T11:00:58.457Z,9.90
2023-03-18T11:04:03.449Z,9.63
2023-03-18T11:07:08.884Z,9.67
2023-03-18T11:10:18.261Z,9.43
2023-03-18T11:13:22.373Z,9.25
2023-03-18T11:16:34.699Z,9.28
2023-03-18T11:19:48.874Z,9.38
2023-03-18T11:22:53.285Z,9.70
2023-03-18T11:25:55.926Z,9.80
2023-03-18T11:29:03.290Z,9.51
2023-03-18T11:32:06.889Z,9.53
2023-03-18T11:35:20.488Z,9.50
2023-03-18T11:38:33.512Z,9.40
2023-03-18T11:41:38.608Z,9.33
2023-03-18T11:44:41.078Z,9.62
2023-03-18T11:47:44.115Z,9.80
2023-03-18T11:51:07.450Z,9.95
2023-03-18T11:54:21.771Z,10.05
2023-03-18T11:57:42.618Z,10.39
2023-03-18T12:01:00.671Z,10.22
2023-03-18T12:04:23.503Z,10.30
2023-03-18T12:07:49.694Z,10.16
2023-03-18T12:10:57.633Z,10.24
2023-03-18T12:14:18.813Z,10.29
2023-03-18T12:17:38.889Z,10.40
2023-03-18T12:20:53.681Z,10.24
2023-03-18T12:24:02.148Z,10.33
2023-03-18T12:27:21.007Z,10.01
2023-03-18T12:30:36.947Z,10.14
2023-03-18T12:34:01.585Z,10.05
2023-03-18T12:37:14.120Z,10.05
2023-03-18T12:40:34.622Z,9.99
2023-03-18T12:44:01.850Z,10.20
2023-03-18T12:47:16.238Z,10.41
2023-03-18T12:50:28.062Z,10.15
2023-03-18T12:53:40.632Z,10.24
2023-03-18T12:56:46.242Z,10.19
2023-03-18T12:59:58.097Z,10.31
2023-03-18T13:03:13.602Z,10.32
2023-03-18T13:06:28.759Z,10.23
2023-03-18T13:09:46.175Z,10.25
2023-03-18T13:12:52.222Z,10.42
2023-03-18T13:15:55.317Z,10.44
2023-03-18T13:18:58.596Z,10.47
2023-03-18T13:22:23.923Z,10.44
2023-03-18T13:25:29.125Z,10.60
2023-03-18T13:29:08.914Z,10.52
2023-03-18T13:32:24.685Z,10.59
2023-03-18T13:35:43.674Z,10.58
2023-03-18T13:38:57.964Z,10.66
2023-03-18T13:42:22.363Z,10.39
2023-03-18T13:45:29.433Z,10.50
2023-03-18T13:48:37.061Z,10.45
2023-03-18T13:51:40.069Z,10.52
2023-03-18T13:54:42.836Z,10.44
2023-03-18T13:58:10.658Z,10.49
2023-03-18T14:01:24.938Z,10.56
2023-03-18T14:04:46.096Z,10.60
2023-03-18T14:07:49.711Z,10.50
2023-03-18T14:11:17.905Z,10.75
2023-03-18T14:14:42.467Z,10.82
2023-03-18T14:17:48.758Z,10.73
2023-03-18T14:20:55.872Z,10.75
2023-03-18T14:24:13.175Z,10.89
2023-03-18T14:27:20.496Z,11.10
2023-03-18T14:30:34.992Z,11.10
2023-03-18T14:33:49.440Z,11.25
2023-03-18T14:36:54.558Z,11.22
2023-03-18T14:40:01.633Z,11.40
2023-03-18T14:43:11.363Z,11.48
2023-03-18T14:46:25.183Z,11.29
2023-03-18T14:49:36.137Z,11.18
2023-03-18T14:52:41.147Z,11.08
2023-03-18T14:55:45.076Z,10.99
2023-03-18T14:58:48.076Z,10.93
2023-03-18T15:01:51.327Z,10.71
2023-03-18T15:04:56.809Z,10.73
2023-03-18T15:08:00.202Z,10.52
2023-03-18T15:11:11.924Z,10.57
2023-03-18T15:14:26.141Z,10.39
2023-03-18T15:17:28.567Z,10.34
2023-03-18T15:20:35.660Z,10.27
2023-03-18T15:23:42.193Z,10.35
2023-03-18T15:26:44.789Z,10.34
2023-03-18T15:29:58.413Z,10.28
2023-03-18T15:33:09.840Z,10.21
2023-03-18T15:36:16.705Z,10.21
2023-03-18T15:39:28.896Z,10.16
2023-03-18T15:42:31.713Z,10.19
2023-03-18T15:45:34.375Z,10.10
2023-03-18T15:48:41.679Z,10.06
2023-03-18T15:51:49.777Z,9.92
2023-03-18T15:54:52.209Z,10.00
2023-03-18T15:57:54.581Z,9.91
2023-03-18T16:00:57.588Z,9.85
2023-03-18T16:04:00.692Z,9.74
2023-03-18T16:07:04.460Z,9.55
2023-03-18T16:10:08.571Z,9.49
2023-03-18T16:13:18.347Z,9.32
2023-03-18T16:16:30.644Z,9.40
2023-03-18T16:19:34.026Z,9.33
2023-03-18T16:22:36.628Z,9.23
2023-03-18T16:25:40.289Z,9.35
2023-03-18T16:28:45.480Z,9.22
2023-03-18T16:31:49.060Z,9.22
2023-03-18T16:34:51.542Z,9.29
2023-03-18T16:37:54.563Z,9.23
2023-03-18T16:40:57.632Z,9.24
2023-03-18T16:44:00.542Z,8.98
2023-03-18T16:47:02.944Z,9.04
2023-03-18T16:50:22.238Z,9.04
2023-03-18T16:53:29.751Z,8.84
2023-03-18T16:56:32.300Z,8.86
2023-03-18T16:59:36.103Z,8.85
2023-03-18T17:02:40.885Z,8.79
2023-03-18T17:05:43.223Z,8.63
2023-03-18T17:08:45.953Z,8.71
2023-03-18T17:11:49.173Z,8.55
2023-03-18T17:14:56.309Z,8.52
2023-03-18T17:17:59.894Z,8.50
2023-03-18T17:21:05.523Z,8.42
2023-03-18T17:24:08.289Z,8.27
2023-03-18T17:27:13.783Z,8.16
2023-03-18T17:30:19.266Z,8.04
2023-03-18T17:33:27.601Z,8.01
2023-03-18T17:36:32.306Z,7.85
2023-03-18T17:39:34.707Z,7.91
2023-03-18T17:42:37.177Z,7.83
2023-03-18T17:45:39.789Z,7.81
2023-03-18T17:48:42.256Z,7.86
2023-03-18T17:51:48.678Z,7.90
2023-03-18T17:54:51.303Z,7.70
2023-03-18T17:57:53.641Z,7.75
2023-03-18T18:01:09.556Z,7.80
2023-03-18T18:04:23.174Z,7.92
2023-03-18T18:07:25.547Z,7.71
2023-03-18T18:10:27.924Z,7.72
2023-03-18T18:13:30.634Z,7.69
2023-03-18T18:16:32.933Z,7.71
2023-03-18T18:19:36.240Z,7.60
2023-03-18T18:22:39.416Z,7.71
2023-03-18T18:25:41.723Z,7.58
2023-03-18T18:28:46.640Z,7.82
2023-03-18T18:31:49.074Z,7.75
2023-03-18T18:34:51.458Z,7.70
2023-03-18T18:37:54.194Z,7.58
2023-03-18T18:40:57.916Z,7.52
2023-03-18T18:44:00.572Z,7.51
2023-03-18T18:47:03.162Z,7.37
2023-03-18T18:50:06.624Z,7.42
2023-03-18T18:53:23.079Z,7.52
2023-03-18T18:56:34.886Z,7.37
2023-03-18T18:59:37.638Z,7.33
2023-03-18T19:02:39.992Z,7.25
2023-03-18T19:05:44.465Z,7.16
2023-03-18T19:08:47.332Z,7.20
2023-03-18T19:11:50.388Z,7.18
2023-03-18T19:14:52.937Z,7.13
2023-03-18T19:17:55.339Z,7.21
2023-03-18T19:20:58.438Z,7.11
2023-03-18T19:24:01.228Z,7.09
2023-03-18T19:27:14.730Z,7.02
2023-03-18T19:30:22.881Z,7.19
2023-03-18T19:33:25.853Z,7.12
2023-03-18T19:36:31.629Z,7.08
2023-03-18T19:39:34.192Z,7.04
2023-03-18T19:42:36.867Z,6.97
2023-03-18T19:45:41.170Z,7.01
2023-03-18T19:48:43.664Z,6.71
2023-03-18T19:51:46.507Z,6.94
2023-03-18T19:54:49.856Z,6.83
2023-03-18T19:57:53.255Z,6.78
2023-03-18T20:00:56.348Z,6.55
2023-03-18T20:03:59.546Z,6.18
2023-03-18T20:07:03.917Z,6.25
2023-03-18T20:10:08.757Z,6.08
2023-03-18T20:13:17.757Z,6.11
2023-03-18T20:16:21.781Z,6.22
2023-03-18T20:19:24.188Z,6.26
2023-03-18T20:22:30.699Z,6.35
2023-03-18T20:25:41.237Z,6.33
2023-03-18T20:28:45.753Z,6.25
2023-03-18T20:31:48.479Z,6.18
2023-03-18T20:34:51.336Z,6.11
2023-03-18T20:37:54.081Z,6.20
2023-03-18T20:40:57.176Z,6.20
2023-03-18T20:43:59.461Z,6.04
2023-03-18T20:47:01.706Z,5.99
2023-03-18T20:50:04.679Z,5.76
2023-03-18T20:53:15.344Z,5.83
2023-03-18T20:56:22.683Z,5.93
2023-03-18T20:59:25.315Z,5.95
2023-03-18T21:02:29.943Z,5.81
2023-03-18T21:05:32.563Z,5.80
2023-03-18T21:08:35.054Z,5.61
2023-03-18T21:11:38.132Z,5.61
2023-03-18T21:14:40.484Z,5.78
2023-03-18T21:17:43.998Z,5.79
2023-03-18T21:20:46.748Z,5.70
2023-03-18T21:23:49.299Z,5.64
2023-03-18T21:27:03.785Z,5.85
2023-03-18T21:30:10.265Z,5.87
2023-03-18T21:33:26.295Z,5.91
2023-03-18T21:36:28.863Z,5.89
2023-03-18T21:39:31.115Z,6.15
2023-03-18T21:42:34.142Z,6.11
2023-03-18T21:45:36.518Z,6.14
2023-03-18T21:48:38.859Z,6.28
2023-03-18T21:51:41.944Z,6.27
2023-03-18T21:54:44.428Z,6.30
2023-03-18T21:57:48.863Z,6.20
2023-03-18T22:00:53.924Z,6.10
2023-03-18T22:03:56.434Z,6.20
2023-03-18T22:06:58.760Z,6.05
2023-03-18T22:10:01.279Z,6.22
2023-03-18T22:13:16.668Z,6.04
2023-03-18T22:16:19.093Z,6.05
2023-03-18T22:19:21.679Z,5.98
2023-03-18T22:22:26.305Z,5.95
2023-03-18T22:25:34.284Z,6.00
2023-03-18T22:28:36.833Z,6.04
2023-03-18T22:31:39.749Z,6.01
2023-03-18T22:34:42.042Z,6.06
2023-03-18T22:37:45.190Z,5.88
2023-03-18T22:40:50.030Z,5.80
2023-03-18T22:43:52.509Z,5.76
2023-03-18T22:46:54.941Z,5.82
2023-03-18T22:49:57.356Z,5.52
2023-03-18T22:53:05.539Z,5.72
2023-03-18T22:56:11.450Z,5.76
2023-03-18T22:59:14.489Z,5.54
2023-03-18T23:02:21.961Z,5.52
2023-03-18T23:05:24.435Z,5.43
2023-03-18T23:08:27.786Z,5.38
2023-03-18T23:11:31.145Z,5.13
2023-03-18T23:14:33.497Z,5.10
2023-03-18T23:17:35.818Z,4.92
2023-03-18T23:20:38.196Z,4.88
2023-03-18T23:23:40.558Z,5.01
2023-03-18T23:26:42.862Z,5.02
2023-03-18T23:29:45.344Z,4.96
2023-03-18T23:32:47.732Z,4.90
2023-03-18T23:35:50.076Z,4.68
2023-03-18T23:38:52.507Z,4.62
2023-03-18T23:41:54.912Z,4.63
2023-03-18T23:44:57.364Z,4.69
2023-03-18T23:47:59.693Z,4.65
2023-03-18T23:51:02.343Z,4.71
2023-03-18T23:54:05.400Z,4.65
2023-03-18T23:57:09.643Z,4.59
